sensor_id;sensor_type;location;lat;lon;timestamp;pressure;altitude;pressure_sealevel;temperature;humidity
29247;BME280;16272;48.188;9.964;2023-05-21T00:00:58;95358.06;;;13.49;73.38
29247;BME280;16272;48.188;9.964;2023-05-21T00:03:25;95362.78;;;13.62;71.67
29247;BME280;16272;48.188;9.964;2023-05-21T00:05:52;95370.41;;;13.27;74.36
29247;BME280;16272;48.188;9.964;2023-05-21T00:08:17;95372.72;;;13.07;73.29
29247;BME280;16272;48.188;9.964;2023-05-21T00:10:42;95369.38;;;12.82;73.79
29247;BME280;16272;48.188;9.964;2023-05-21T00:13:08;95362.53;;;12.56;75.00
29247;BME280;16272;48.188;9.964;2023-05-21T00:15:35;95358.72;;;12.82;73.79
29247;BME280;16272;48.188;9.964;2023-05-21T00:18:00;95362.28;;;12.97;72.28
29247;BME280;16272;48.188;9.964;2023-05-21T00:20:25;95369.94;;;13.00;74.60
29247;BME280;16272;48.188;9.964;2023-05-21T00:22:53;95360.69;;;13.11;73.19
29247;BME280;16272;48.188;9.964;2023-05-21T00:25:19;95366.59;;;12.75;75.35
29247;BME280;16272;48.188;9.964;2023-05-21T00:27:44;95359.38;;;12.84;75.78
29247;BME280;16272;48.188;9.964;2023-05-21T00:30:10;95362.28;;;12.97;75.52
29247;BME280;16272;48.188;9.964;2023-05-21T00:32:35;95355.59;;;12.78;75.61
29247;BME280;16272;48.188;9.964;2023-05-21T00:35:01;95348.63;;;13.00;74.17
29247;BME280;16272;48.188;9.964;2023-05-21T00:37:27;95347.66;;;12.93;76.13
29247;BME280;16272;48.188;9.964;2023-05-21T00:40:00;95352.56;;;13.04;75.83
29247;BME280;16272;48.188;9.964;2023-05-21T00:42:25;95353.94;;;13.00;75.89
29247;BME280;16272;48.188;9.964;2023-05-21T00:44:52;95352.19;;;12.61;75.44
29247;BME280;16272;48.188;9.964;2023-05-21T00:47:18;95343.72;;;12.58;74.56
29247;BME280;16272;48.188;9.964;2023-05-21T00:49:46;95339.09;;;12.52;74.79
29247;BME280;16272;48.188;9.964;2023-05-21T00:52:13;95345.03;;;12.62;75.46
29247;BME280;16272;48.188;9.964;2023-05-21T00:54:39;95336.47;;;12.75;74.11
29247;BME280;16272;48.188;9.964;2023-05-21T00:57:05;95332.25;;;13.03;73.14
29247;BME280;16272;48.188;9.964;2023-05-21T00:59:31;95333.22;;;13.11;72.93
29247;BME280;16272;48.188;9.964;2023-05-21T01:01:57;95339.13;;;12.98;72.90
29247;BME280;16272;48.188;9.964;2023-05-21T01:04:29;95341.97;;;12.96;73.05
29247;BME280;16272;48.188;9.964;2023-05-21T01:06:55;95338.06;;;13.07;72.81
29247;BME280;16272;48.188;9.964;2023-05-21T01:09:23;95339.06;;;13.06;72.46
29247;BME280;16272;48.188;9.964;2023-05-21T01:11:50;95338.88;;;12.61;75.96
29247;BME280;16272;48.188;9.964;2023-05-21T01:14:16;95339.94;;;12.75;73.73
29247;BME280;16272;48.188;9.964;2023-05-21T01:16:46;95340.88;;;12.59;74.65
29247;BME280;16272;48.188;9.964;2023-05-21T01:19:18;95342.56;;;12.52;76.18
29247;BME280;16272;48.188;9.964;2023-05-21T01:21:45;95339.25;;;12.50;76.62
29247;BME280;16272;48.188;9.964;2023-05-21T01:24:12;95340.72;;;12.53;74.38
29247;BME280;16272;48.188;9.964;2023-05-21T01:26:37;95341.31;;;12.40;75.98
29247;BME280;16272;48.188;9.964;2023-05-21T01:29:05;95344.63;;;12.42;73.79
29247;BME280;16272;48.188;9.964;2023-05-21T01:31:44;95342.91;;;12.18;75.38
29247;BME280;16272;48.188;9.964;2023-05-21T01:34:13;95344.31;;;12.05;75.83
29247;BME280;16272;48.188;9.964;2023-05-21T01:36:45;95343.84;;;11.69;77.60
29247;BME280;16272;48.188;9.964;2023-05-21T01:39:22;95338.50;;;11.85;76.23
29247;BME280;16272;48.188;9.964;2023-05-21T01:41:52;95340.84;;;11.80;77.25
29247;BME280;16272;48.188;9.964;2023-05-21T01:44:19;95338.31;;;11.95;76.15
29247;BME280;16272;48.188;9.964;2023-05-21T01:46:46;95340.97;;;12.03;76.76
29247;BME280;16272;48.188;9.964;2023-05-21T01:49:12;95343.13;;;12.00;78.09
29247;BME280;16272;48.188;9.964;2023-05-21T01:51:39;95341.94;;;12.10;76.45
29247;BME280;16272;48.188;9.964;2023-05-21T01:54:06;95346.13;;;11.97;76.33
29247;BME280;16272;48.188;9.964;2023-05-21T01:56:31;95335.69;;;11.70;77.16
29247;BME280;16272;48.188;9.964;2023-05-21T01:58:58;95339.72;;;11.58;77.44
29247;BME280;16272;48.188;9.964;2023-05-21T02:01:24;95337.41;;;11.63;77.59
29247;BME280;16272;48.188;9.964;2023-05-21T02:03:50;95337.75;;;11.52;78.55
29247;BME280;16272;48.188;9.964;2023-05-21T02:06:15;95341.22;;;11.61;78.41
29247;BME280;16272;48.188;9.964;2023-05-21T02:08:41;95336.53;;;11.79;77.11
29247;BME280;16272;48.188;9.964;2023-05-21T02:11:06;95340.53;;;11.75;77.28
29247;BME280;16272;48.188;9.964;2023-05-21T02:13:31;95329.34;;;11.96;75.94
29247;BME280;16272;48.188;9.964;2023-05-21T02:15:57;95337.28;;;12.12;74.99
29247;BME280;16272;48.188;9.964;2023-05-21T02:18:22;95336.50;;;12.04;75.74
29247;BME280;16272;48.188;9.964;2023-05-21T02:20:48;95333.50;;;11.90;75.46
29247;BME280;16272;48.188;9.964;2023-05-21T02:23:13;95329.50;;;11.86;75.45
29247;BME280;16272;48.188;9.964;2023-05-21T02:25:39;95329.38;;;11.80;75.74
29247;BME280;16272;48.188;9.964;2023-05-21T02:28:04;95323.31;;;11.46;76.30
29247;BME280;16272;48.188;9.964;2023-05-21T02:30:30;95326.94;;;11.45;77.46
29247;BME280;16272;48.188;9.964;2023-05-21T02:32:56;95317.59;;;11.66;76.79
29247;BME280;16272;48.188;9.964;2023-05-21T02:35:23;95318.72;;;11.80;75.63
29247;BME280;16272;48.188;9.964;2023-05-21T02:37:48;95323.88;;;11.81;75.36
29247;BME280;16272;48.188;9.964;2023-05-21T02:40:13;95326.28;;;11.51;76.66
29247;BME280;16272;48.188;9.964;2023-05-21T02:42:39;95325.28;;;11.44;77.36
29247;BME280;16272;48.188;9.964;2023-05-21T02:45:07;95329.25;;;11.56;76.55
29247;BME280;16272;48.188;9.964;2023-05-21T02:47:32;95313.63;;;11.62;75.78
29247;BME280;16272;48.188;9.964;2023-05-21T02:49:59;95318.47;;;11.50;76.52
29247;BME280;16272;48.188;9.964;2023-05-21T02:52:24;95308.22;;;11.86;75.52
29247;BME280;16272;48.188;9.964;2023-05-21T02:54:50;95309.38;;;11.84;74.41
29247;BME280;16272;48.188;9.964;2023-05-21T02:57:15;95304.31;;;11.49;76.34
29247;BME280;16272;48.188;9.964;2023-05-21T02:59:42;95308.38;;;11.20;77.85
29247;BME280;16272;48.188;9.964;2023-05-21T03:02:08;95307.72;;;11.27;78.18
29247;BME280;16272;48.188;9.964;2023-05-21T03:04:33;95305.06;;;11.27;77.26
29247;BME280;16272;48.188;9.964;2023-05-21T03:07:04;95301.38;;;11.11;77.46
29247;BME280;16272;48.188;9.964;2023-05-21T03:09:30;95302.25;;;11.20;76.37
29247;BME280;16272;48.188;9.964;2023-05-21T03:11:55;95302.06;;;10.97;78.71
29247;BME280;16272;48.188;9.964;2023-05-21T03:14:20;95309.03;;;10.90;79.14
29247;BME280;16272;48.188;9.964;2023-05-21T03:16:45;95299.91;;;10.92;78.86
29247;BME280;16272;48.188;9.964;2023-05-21T03:19:12;95300.41;;;10.79;80.28
29247;BME280;16272;48.188;9.964;2023-05-21T03:21:37;95299.75;;;10.85;80.78
29247;BME280;16272;48.188;9.964;2023-05-21T03:24:06;95309.69;;;10.92;79.62
29247;BME280;16272;48.188;9.964;2023-05-21T03:26:31;95303.41;;;10.93;78.79
29247;BME280;16272;48.188;9.964;2023-05-21T03:28:57;95309.69;;;10.83;79.48
29247;BME280;16272;48.188;9.964;2023-05-21T03:31:23;95302.56;;;11.09;78.71
29247;BME280;16272;48.188;9.964;2023-05-21T03:33:49;95302.75;;;11.07;77.86
29247;BME280;16272;48.188;9.964;2023-05-21T03:36:15;95304.38;;;10.92;78.59
29247;BME280;16272;48.188;9.964;2023-05-21T03:38:41;95306.72;;;10.87;79.67
29247;BME280;16272;48.188;9.964;2023-05-21T03:41:07;95301.72;;;10.83;79.28
29247;BME280;16272;48.188;9.964;2023-05-21T03:43:32;95318.34;;;10.69;80.53
29247;BME280;16272;48.188;9.964;2023-05-21T03:45:58;95312.44;;;10.41;81.52
29247;BME280;16272;48.188;9.964;2023-05-21T03:48:23;95307.00;;;10.59;80.41
29247;BME280;16272;48.188;9.964;2023-05-21T03:50:48;95312.84;;;10.71;80.20
29247;BME280;16272;48.188;9.964;2023-05-21T03:53:14;95312.69;;;10.97;79.72
29247;BME280;16272;48.188;9.964;2023-05-21T03:55:39;95315.34;;;11.05;79.05
29247;BME280;16272;48.188;9.964;2023-05-21T03:58:05;95312.03;;;11.19;78.38
29247;BME280;16272;48.188;9.964;2023-05-21T04:00:30;95322.66;;;10.95;78.76
29247;BME280;16272;48.188;9.964;2023-05-21T04:02:57;95321.97;;;10.76;80.34
29247;BME280;16272;48.188;9.964;2023-05-21T04:05:22;95322.66;;;10.87;78.77
29247;BME280;16272;48.188;9.964;2023-05-21T04:07:47;95323.13;;;11.23;77.44
29247;BME280;16272;48.188;9.964;2023-05-21T04:10:14;95326.50;;;11.09;77.94
29247;BME280;16272;48.188;9.964;2023-05-21T04:12:39;95330.28;;;11.14;77.55
29247;BME280;16272;48.188;9.964;2023-05-21T04:15:05;95335.78;;;10.88;78.40
29247;BME280;16272;48.188;9.964;2023-05-21T04:17:31;95336.25;;;10.92;78.16
29247;BME280;16272;48.188;9.964;2023-05-21T04:19:57;95337.28;;;10.82;78.80
29247;BME280;16272;48.188;9.964;2023-05-21T04:22:22;95329.47;;;11.30;77.80
29247;BME280;16272;48.188;9.964;2023-05-21T04:24:50;95337.63;;;11.20;78.55
29247;BME280;16272;48.188;9.964;2023-05-21T04:27:16;95348.53;;;11.58;76.74
29247;BME280;16272;48.188;9.964;2023-05-21T04:29:42;95341.25;;;11.28;77.23
29247;BME280;16272;48.188;9.964;2023-05-21T04:32:07;95345.41;;;11.38;77.26
29247;BME280;16272;48.188;9.964;2023-05-21T04:34:33;95347.53;;;11.68;77.01
29247;BME280;16272;48.188;9.964;2023-05-21T04:36:59;95352.16;;;11.74;76.11
29247;BME280;16272;48.188;9.964;2023-05-21T04:39:26;95348.53;;;11.50;76.45
29247;BME280;16272;48.188;9.964;2023-05-21T04:41:53;95349.69;;;11.72;76.51
29247;BME280;16272;48.188;9.964;2023-05-21T04:44:19;95344.69;;;11.77;77.12
29247;BME280;16272;48.188;9.964;2023-05-21T04:46:44;95352.78;;;12.01;76.58
29247;BME280;16272;48.188;9.964;2023-05-21T04:49:11;95348.91;;;12.11;76.28
29247;BME280;16272;48.188;9.964;2023-05-21T04:51:36;95349.69;;;12.28;75.24
29247;BME280;16272;48.188;9.964;2023-05-21T04:54:04;95356.34;;;12.24;75.76
29247;BME280;16272;48.188;9.964;2023-05-21T04:56:29;95354.38;;;12.18;76.41
29247;BME280;16272;48.188;9.964;2023-05-21T04:58:55;95352.53;;;12.27;76.25
29247;BME280;16272;48.188;9.964;2023-05-21T05:01:23;95357.22;;;12.56;75.76
29247;BME280;16272;48.188;9.964;2023-05-21T05:03:49;95359.25;;;12.77;75.98
29247;BME280;16272;48.188;9.964;2023-05-21T05:06:16;95357.25;;;12.79;75.09
29247;BME280;16272;48.188;9.964;2023-05-21T05:08:41;95365.06;;;12.81;76.33
29247;BME280;16272;48.188;9.964;2023-05-21T05:11:06;95365.66;;;13.14;73.82
29247;BME280;16272;48.188;9.964;2023-05-21T05:13:33;95366.41;;;13.23;74.65
29247;BME280;16272;48.188;9.964;2023-05-21T05:16:00;95357.97;;;13.42;74.40
29247;BME280;16272;48.188;9.964;2023-05-21T05:18:25;95357.72;;;13.52;73.59
29247;BME280;16272;48.188;9.964;2023-05-21T05:20:50;95358.78;;;13.81;73.12
29247;BME280;16272;48.188;9.964;2023-05-21T05:23:16;95356.56;;;13.85;73.40
29247;BME280;16272;48.188;9.964;2023-05-21T05:25:41;95354.00;;;14.06;73.41
29247;BME280;16272;48.188;9.964;2023-05-21T05:28:06;95362.47;;;14.25;72.59
29247;BME280;16272;48.188;9.964;2023-05-21T05:30:32;95363.75;;;14.29;73.28
29247;BME280;16272;48.188;9.964;2023-05-21T05:32:57;95357.66;;;14.65;71.95
29247;BME280;16272;48.188;9.964;2023-05-21T05:35:23;95354.53;;;14.46;73.15
29247;BME280;16272;48.188;9.964;2023-05-21T05:37:48;95359.06;;;14.31;74.33
29247;BME280;16272;48.188;9.964;2023-05-21T05:40:13;95355.63;;;14.67;72.90
29247;BME280;16272;48.188;9.964;2023-05-21T05:42:39;95357.63;;;14.80;72.82
29247;BME280;16272;48.188;9.964;2023-05-21T05:45:04;95354.00;;;14.87;72.40
29247;BME280;16272;48.188;9.964;2023-05-21T05:47:30;95349.56;;;15.16;72.73
29247;BME280;16272;48.188;9.964;2023-05-21T05:49:56;95347.47;;;15.33;71.57
29247;BME280;16272;48.188;9.964;2023-05-21T05:52:21;95344.94;;;15.53;70.59
29247;BME280;16272;48.188;9.964;2023-05-21T05:54:47;95347.25;;;15.56;71.94
29247;BME280;16272;48.188;9.964;2023-05-21T05:57:12;95339.88;;;15.37;73.17
29247;BME280;16272;48.188;9.964;2023-05-21T05:59:37;95351.22;;;15.17;72.40
29247;BME280;16272;48.188;9.964;2023-05-21T06:02:03;95355.44;;;15.27;72.70
29247;BME280;16272;48.188;9.964;2023-05-21T06:04:28;95350.44;;;15.73;72.53
29247;BME280;16272;48.188;9.964;2023-05-21T06:06:57;95347.47;;;15.83;71.50
29247;BME280;16272;48.188;9.964;2023-05-21T06:09:24;95353.66;;;15.62;71.34
29247;BME280;16272;48.188;9.964;2023-05-21T06:11:49;95352.06;;;15.68;71.31
29247;BME280;16272;48.188;9.964;2023-05-21T06:14:14;95351.13;;;16.04;70.72
29247;BME280;16272;48.188;9.964;2023-05-21T06:16:40;95357.25;;;15.97;71.39
29247;BME280;16272;48.188;9.964;2023-05-21T06:19:05;95350.78;;;16.20;71.27
29247;BME280;16272;48.188;9.964;2023-05-21T06:21:31;95343.94;;;16.11;71.83
29247;BME280;16272;48.188;9.964;2023-05-21T06:23:56;95347.78;;;16.02;71.54
29247;BME280;16272;48.188;9.964;2023-05-21T06:26:22;95349.34;;;16.24;70.77
29247;BME280;16272;48.188;9.964;2023-05-21T06:28:48;95346.69;;;16.24;71.62
29247;BME280;16272;48.188;9.964;2023-05-21T06:31:14;95344.53;;;16.48;71.31
29247;BME280;16272;48.188;9.964;2023-05-21T06:33:40;95339.78;;;16.98;70.46
29247;BME280;16272;48.188;9.964;2023-05-21T06:36:06;95348.63;;;16.92;69.96
29247;BME280;16272;48.188;9.964;2023-05-21T06:38:31;95348.44;;;16.45;70.20
29247;BME280;16272;48.188;9.964;2023-05-21T06:40:57;95347.25;;;16.54;70.62
29247;BME280;16272;48.188;9.964;2023-05-21T06:43:22;95354.31;;;16.76;69.25
29247;BME280;16272;48.188;9.964;2023-05-21T06:45:48;95351.09;;;16.87;70.96
29247;BME280;16272;48.188;9.964;2023-05-21T06:48:14;95361.06;;;17.26;68.79
29247;BME280;16272;48.188;9.964;2023-05-21T06:50:41;95363.81;;;17.33;68.40
29247;BME280;16272;48.188;9.964;2023-05-21T06:53:07;95358.38;;;17.20;69.38
29247;BME280;16272;48.188;9.964;2023-05-21T06:55:32;95355.69;;;17.06;67.87
29247;BME280;16272;48.188;9.964;2023-05-21T06:57:58;95361.06;;;17.26;67.39
29247;BME280;16272;48.188;9.964;2023-05-21T07:00:23;95352.88;;;17.55;65.97
29247;BME280;16272;48.188;9.964;2023-05-21T07:02:49;95354.69;;;17.41;68.63
29247;BME280;16272;48.188;9.964;2023-05-21T07:05:14;95348.31;;;17.89;68.05
29247;BME280;16272;48.188;9.964;2023-05-21T07:07:40;95350.19;;;17.55;67.21
29247;BME280;16272;48.188;9.964;2023-05-21T07:10:06;95347.50;;;17.68;65.90
29247;BME280;16272;48.188;9.964;2023-05-21T07:12:31;95355.75;;;17.47;66.94
29247;BME280;16272;48.188;9.964;2023-05-21T07:15:01;95351.41;;;17.72;68.31
29247;BME280;16272;48.188;9.964;2023-05-21T07:17:26;95358.25;;;17.68;66.67
29247;BME280;16272;48.188;9.964;2023-05-21T07:19:51;95348.06;;;18.30;67.32
29247;BME280;16272;48.188;9.964;2023-05-21T07:22:17;95352.63;;;18.16;64.38
29247;BME280;16272;48.188;9.964;2023-05-21T07:24:42;95354.59;;;18.48;66.38
29247;BME280;16272;48.188;9.964;2023-05-21T07:27:07;95346.50;;;18.61;65.37
29247;BME280;16272;48.188;9.964;2023-05-21T07:29:33;95347.66;;;18.79;63.46
29247;BME280;16272;48.188;9.964;2023-05-21T07:31:58;95345.81;;;18.72;65.85
29247;BME280;16272;48.188;9.964;2023-05-21T07:34:24;95351.22;;;19.18;63.48
29247;BME280;16272;48.188;9.964;2023-05-21T07:36:50;95349.75;;;18.77;64.04
29247;BME280;16272;48.188;9.964;2023-05-21T07:39:15;95358.56;;;18.45;64.15
29247;BME280;16272;48.188;9.964;2023-05-21T07:41:41;95354.56;;;18.68;64.23
29247;BME280;16272;48.188;9.964;2023-05-21T07:44:06;95348.72;;;18.84;64.42
29247;BME280;16272;48.188;9.964;2023-05-21T07:46:31;95353.34;;;19.09;63.07
29247;BME280;16272;48.188;9.964;2023-05-21T07:48:57;95346.03;;;19.16;63.94
29247;BME280;16272;48.188;9.964;2023-05-21T07:51:22;95345.94;;;18.98;63.96
29247;BME280;16272;48.188;9.964;2023-05-21T07:53:47;95346.56;;;18.41;63.95
29247;BME280;16272;48.188;9.964;2023-05-21T07:56:13;95363.19;;;17.98;65.25
29247;BME280;16272;48.188;9.964;2023-05-21T07:58:39;95358.81;;;18.82;64.07
29247;BME280;16272;48.188;9.964;2023-05-21T08:01:04;95360.25;;;18.26;65.24
29247;BME280;16272;48.188;9.964;2023-05-21T08:03:30;95361.03;;;18.47;65.57
29247;BME280;16272;48.188;9.964;2023-05-21T08:05:55;95370.03;;;18.79;65.17
29247;BME280;16272;48.188;9.964;2023-05-21T08:08:21;95369.56;;;19.59;62.98
29247;BME280;16272;48.188;9.964;2023-05-21T08:10:47;95362.84;;;19.75;62.91
29247;BME280;16272;48.188;9.964;2023-05-21T08:13:16;95357.97;;;19.34;62.97
29247;BME280;16272;48.188;9.964;2023-05-21T08:15:41;95366.91;;;19.27;63.68
29247;BME280;16272;48.188;9.964;2023-05-21T08:18:07;95365.06;;;19.53;62.67
29247;BME280;16272;48.188;9.964;2023-05-21T08:20:32;95361.38;;;19.47;61.51
29247;BME280;16272;48.188;9.964;2023-05-21T08:22:58;95354.78;;;20.00;62.38
29247;BME280;16272;48.188;9.964;2023-05-21T08:25:27;95356.91;;;19.92;61.33
29247;BME280;16272;48.188;9.964;2023-05-21T08:27:52;95357.16;;;19.58;60.57
29247;BME280;16272;48.188;9.964;2023-05-21T08:30:18;95347.91;;;19.16;62.32
29247;BME280;16272;48.188;9.964;2023-05-21T08:32:43;95358.50;;;19.74;63.67
29247;BME280;16272;48.188;9.964;2023-05-21T08:35:09;95360.44;;;18.97;62.92
29247;BME280;16272;48.188;9.964;2023-05-21T08:37:34;95367.25;;;19.38;63.81
29247;BME280;16272;48.188;9.964;2023-05-21T08:40:01;95365.22;;;19.26;62.60
29247;BME280;16272;48.188;9.964;2023-05-21T08:42:46;95363.50;;;19.39;61.65
29247;BME280;16272;48.188;9.964;2023-05-21T08:45:23;95363.25;;;19.72;62.64
29247;BME280;16272;48.188;9.964;2023-05-21T08:47:55;95362.00;;;20.25;62.38
29247;BME280;16272;48.188;9.964;2023-05-21T08:50:23;95366.31;;;20.26;62.12
29247;BME280;16272;48.188;9.964;2023-05-21T08:52:50;95363.03;;;20.24;59.91
29247;BME280;16272;48.188;9.964;2023-05-21T08:55:16;95360.19;;;20.37;62.11
29247;BME280;16272;48.188;9.964;2023-05-21T08:57:42;95361.94;;;20.50;59.65
29247;BME280;16272;48.188;9.964;2023-05-21T09:00:09;95364.56;;;20.57;59.53
29247;BME280;16272;48.188;9.964;2023-05-21T09:02:36;95366.34;;;21.00;61.05
29247;BME280;16272;48.188;9.964;2023-05-21T09:05:05;95365.19;;;21.08;59.17
29247;BME280;16272;48.188;9.964;2023-05-21T09:07:37;95369.94;;;20.57;59.43
29247;BME280;16272;48.188;9.964;2023-05-21T09:10:06;95371.41;;;20.16;60.57
29247;BME280;16272;48.188;9.964;2023-05-21T09:12:34;95370.84;;;20.51;61.16
29247;BME280;16272;48.188;9.964;2023-05-21T09:15:00;95376.44;;;20.74;60.54
29247;BME280;16272;48.188;9.964;2023-05-21T09:17:25;95373.88;;;20.80;61.40
29247;BME280;16272;48.188;9.964;2023-05-21T09:20:10;95377.47;;;21.53;58.54
29247;BME280;16272;48.188;9.964;2023-05-21T09:22:47;95380.09;;;20.80;59.80
29247;BME280;16272;48.188;9.964;2023-05-21T09:25:15;95380.44;;;20.84;57.08
29247;BME280;16272;48.188;9.964;2023-05-21T09:27:41;95371.47;;;20.71;56.35
29247;BME280;16272;48.188;9.964;2023-05-21T09:30:11;95366.00;;;21.27;57.96
29247;BME280;16272;48.188;9.964;2023-05-21T09:32:40;95368.69;;;21.27;57.57
29247;BME280;16272;48.188;9.964;2023-05-21T09:35:14;95367.13;;;21.50;56.18
29247;BME280;16272;48.188;9.964;2023-05-21T09:37:41;95361.59;;;21.98;54.73
29247;BME280;16272;48.188;9.964;2023-05-21T09:42:40;95367.31;;;21.36;54.51
29247;BME280;16272;48.188;9.964;2023-05-21T09:45:08;95373.72;;;20.93;57.35
29247;BME280;16272;48.188;9.964;2023-05-21T09:47:33;95376.22;;;21.55;54.46
29247;BME280;16272;48.188;9.964;2023-05-21T09:49:59;95369.03;;;21.61;52.93
29247;BME280;16272;48.188;9.964;2023-05-21T09:52:25;95367.56;;;21.89;52.66
29247;BME280;16272;48.188;9.964;2023-05-21T09:54:52;95364.53;;;22.20;52.35
29247;BME280;16272;48.188;9.964;2023-05-21T09:57:27;95371.81;;;21.84;53.85
29247;BME280;16272;48.188;9.964;2023-05-21T09:59:55;95361.94;;;22.61;53.73
29247;BME280;16272;48.188;9.964;2023-05-21T10:02:22;95360.28;;;22.72;54.26
29247;BME280;16272;48.188;9.964;2023-05-21T10:04:51;95359.19;;;23.25;48.83
29247;BME280;16272;48.188;9.964;2023-05-21T10:07:19;95352.78;;;24.45;50.91
29247;BME280;16272;48.188;9.964;2023-05-21T10:09:56;95356.88;;;25.58;48.57
29247;BME280;16272;48.188;9.964;2023-05-21T10:12:26;95344.91;;;26.24;44.32
29247;BME280;16272;48.188;9.964;2023-05-21T10:14:59;95353.63;;;25.94;46.49
29247;BME280;16272;48.188;9.964;2023-05-21T10:17:26;95349.22;;;25.28;44.51
29247;BME280;16272;48.188;9.964;2023-05-21T10:19:54;95350.81;;;25.51;49.15
29247;BME280;16272;48.188;9.964;2023-05-21T10:22:23;95351.25;;;24.71;46.22
29247;BME280;16272;48.188;9.964;2023-05-21T10:24:51;95353.81;;;25.05;48.11
29247;BME280;16272;48.188;9.964;2023-05-21T10:27:17;95351.28;;;25.21;46.03
29247;BME280;16272;48.188;9.964;2023-05-21T10:29:44;95345.44;;;24.46;49.54
29247;BME280;16272;48.188;9.964;2023-05-21T10:32:11;95349.22;;;25.06;48.75
29247;BME280;16272;48.188;9.964;2023-05-21T10:34:39;95355.81;;;25.15;45.07
29247;BME280;16272;48.188;9.964;2023-05-21T10:37:06;95352.91;;;25.44;46.80
29247;BME280;16272;48.188;9.964;2023-05-21T10:39:33;95345.09;;;25.53;49.43
29247;BME280;16272;48.188;9.964;2023-05-21T10:42:26;95345.63;;;25.49;46.86
29247;BME280;16272;48.188;9.964;2023-05-21T10:45:22;95342.34;;;24.76;49.66
29247;BME280;16272;48.188;9.964;2023-05-21T10:48:13;95341.53;;;25.47;47.49
29247;BME280;16272;48.188;9.964;2023-05-21T10:51:06;95338.09;;;25.07;48.28
29247;BME280;16272;48.188;9.964;2023-05-21T10:53:58;95337.91;;;24.92;48.16
29247;BME280;16272;48.188;9.964;2023-05-21T10:56:35;95335.19;;;24.31;48.09
29247;BME280;16272;48.188;9.964;2023-05-21T11:01:35;95337.00;;;24.25;50.52
29247;BME280;16272;48.188;9.964;2023-05-21T11:04:02;95330.25;;;24.89;49.59
29247;BME280;16272;48.188;9.964;2023-05-21T11:06:28;95331.56;;;25.58;47.16
29247;BME280;16272;48.188;9.964;2023-05-21T11:08:53;95326.75;;;25.65;47.04
29247;BME280;16272;48.188;9.964;2023-05-21T11:11:38;95327.69;;;25.48;48.04
29247;BME280;16272;48.188;9.964;2023-05-21T11:14:31;95333.91;;;23.99;47.57
29247;BME280;16272;48.188;9.964;2023-05-21T11:17:00;95333.34;;;23.06;51.21
29247;BME280;16272;48.188;9.964;2023-05-21T11:19:40;95334.47;;;24.01;51.13
29247;BME280;16272;48.188;9.964;2023-05-21T11:22:18;95330.09;;;24.73;46.38
29247;BME280;16272;48.188;9.964;2023-05-21T11:24:44;95336.78;;;24.49;48.07
29247;BME280;16272;48.188;9.964;2023-05-21T11:27:10;95332.72;;;24.29;47.54
29247;BME280;16272;48.188;9.964;2023-05-21T11:29:38;95340.75;;;24.80;48.16
29247;BME280;16272;48.188;9.964;2023-05-21T11:32:06;95339.53;;;24.71;48.19
29247;BME280;16272;48.188;9.964;2023-05-21T11:40:15;95330.38;;;26.08;43.67
29247;BME280;16272;48.188;9.964;2023-05-21T11:42:40;95319.41;;;26.88;44.83
29247;BME280;16272;48.188;9.964;2023-05-21T11:45:08;95321.44;;;26.13;42.98
29247;BME280;16272;48.188;9.964;2023-05-21T11:47:34;95333.69;;;26.15;45.09
29247;BME280;16272;48.188;9.964;2023-05-21T11:50:01;95322.22;;;27.09;42.13
29247;BME280;16272;48.188;9.964;2023-05-21T11:52:30;95325.50;;;26.15;45.12
29247;BME280;16272;48.188;9.964;2023-05-21T11:54:56;95323.47;;;26.38;41.87
29247;BME280;16272;48.188;9.964;2023-05-21T11:57:26;95322.41;;;26.92;43.68
29247;BME280;16272;48.188;9.964;2023-05-21T11:59:55;95317.66;;;27.30;43.64
29247;BME280;16272;48.188;9.964;2023-05-21T12:02:24;95318.28;;;26.79;41.32
29247;BME280;16272;48.188;9.964;2023-05-21T12:04:50;95321.09;;;27.05;39.53
29247;BME280;16272;48.188;9.964;2023-05-21T12:07:18;95326.19;;;26.81;39.98
29247;BME280;16272;48.188;9.964;2023-05-21T12:09:46;95324.44;;;27.27;40.81
29247;BME280;16272;48.188;9.964;2023-05-21T12:12:13;95320.09;;;27.37;36.94
29247;BME280;16272;48.188;9.964;2023-05-21T12:14:46;95323.16;;;27.50;36.39
29247;BME280;16272;48.188;9.964;2023-05-21T12:17:14;95324.66;;;26.52;39.46
29247;BME280;16272;48.188;9.964;2023-05-21T12:19:39;95310.81;;;27.22;37.15
29247;BME280;16272;48.188;9.964;2023-05-21T12:22:06;95321.66;;;27.07;38.90
29247;BME280;16272;48.188;9.964;2023-05-21T12:24:33;95322.84;;;26.20;43.18
29247;BME280;16272;48.188;9.964;2023-05-21T12:27:00;95325.13;;;25.69;40.13
29247;BME280;16272;48.188;9.964;2023-05-21T12:29:27;95320.84;;;26.48;39.96
29247;BME280;16272;48.188;9.964;2023-05-21T12:31:53;95312.66;;;27.06;37.56
29247;BME280;16272;48.188;9.964;2023-05-21T12:37:03;95323.41;;;27.44;38.69
29247;BME280;16272;48.188;9.964;2023-05-21T12:39:31;95320.56;;;27.03;34.23
29247;BME280;16272;48.188;9.964;2023-05-21T12:41:56;95320.09;;;26.63;35.71
29247;BME280;16272;48.188;9.964;2023-05-21T12:44:22;95314.66;;;28.45;33.98
29247;BME280;16272;48.188;9.964;2023-05-21T12:46:47;95317.47;;;27.78;35.63
29247;BME280;16272;48.188;9.964;2023-05-21T12:49:36;95317.19;;;26.80;35.78
29247;BME280;16272;48.188;9.964;2023-05-21T12:52:03;95323.31;;;27.13;35.16
29247;BME280;16272;48.188;9.964;2023-05-21T12:54:32;95319.44;;;27.04;35.95
29247;BME280;16272;48.188;9.964;2023-05-21T12:57:26;95317.09;;;27.33;31.85
29247;BME280;16272;48.188;9.964;2023-05-21T12:59:59;95312.25;;;26.72;38.56
29247;BME280;16272;48.188;9.964;2023-05-21T13:02:28;95318.34;;;26.89;30.70
29247;BME280;16272;48.188;9.964;2023-05-21T13:04:56;95304.91;;;27.66;32.46
29247;BME280;16272;48.188;9.964;2023-05-21T13:07:23;95308.09;;;28.51;29.96
29247;BME280;16272;48.188;9.964;2023-05-21T13:09:48;95315.81;;;27.87;33.91
29247;BME280;16272;48.188;9.964;2023-05-21T13:12:17;95303.69;;;27.11;32.34
29247;BME280;16272;48.188;9.964;2023-05-21T13:14:42;95307.84;;;27.34;33.07